WetterOnline ( https://www.wetteronline.de )

Wetter aktuell Heinsdorfergrund

Aktuelles Wetter: Carlsfeld (899m)

6-stündlich | Neueste Meldungen
Ortszeit Temperatur Wetter
Sa, 13.07. 8:00 13.3° C bewölkt
Sa, 13.07. 2:00 16.6° C bedeckt
Fr, 12.07. 20:00 21.1° C bewölkt
Fr, 12.07. 14:00 22.3° C leichter Regen
Fr, 12.07. 8:00 18.7° C bedeckt
Fr, 12.07. 2:00 14.8° C wolkig
Do, 11.07. 20:00 19.4° C leicht bewölkt
Do, 11.07. 14:00 21.1° C wolkig
Ortszeit Temperatur Wetter
Sa, 13.07. 8:30 13.3° C bewölkt
Sa, 13.07. 8:20 13.3° C bewölkt
Sa, 13.07. 8:10 13.2° C bewölkt
Sa, 13.07. 8:00 13.3° C bewölkt
Sa, 13.07. 7:50 13.3° C bewölkt
Sa, 13.07. 7:40 12.9° C bedeckt
Sa, 13.07. 7:30 13.2° C bewölkt
Sa, 13.07. 7:00 12.9° C bedeckt
Sa, 13.07. 6:30 12.9° C Sprühregen
Sa, 13.07. 6:00 13.4° C wolkig
Sa, 13.07. 5:30 13.4° C Sprühregen
Ortszeit Relative Feuchte Sichtweite
Sa, 13.07. 8:00 94% 40 km
Sa, 13.07. 2:00 89% 40 km
Fr, 12.07. 20:00 63% 65 km
Fr, 12.07. 14:00 74% 19 km
Fr, 12.07. 8:00 84% 50 km
Fr, 12.07. 2:00 94% 50 km
Do, 11.07. 20:00 78% 65 km
Do, 11.07. 14:00 64% -
Ortszeit Relative Feuchte Sichtweite
Sa, 13.07. 8:30 89% 40 km
Sa, 13.07. 8:20 89% -
Sa, 13.07. 8:10 91% -
Sa, 13.07. 8:00 94% 40 km
Sa, 13.07. 7:50 94% -
Sa, 13.07. 7:40 94% -
Sa, 13.07. 7:30 95% 25 km
Sa, 13.07. 7:00 97% 26 km
Sa, 13.07. 6:30 96% 27 km
Sa, 13.07. 6:00 97% 30 km
Sa, 13.07. 5:30 97% 24 km
Ortszeit Niederschlagsmenge Niederschlagsart
Sa, 13.07. 8:00 17 l/m2 in 12 Std. Regen
Sa, 13.07. 2:00 0.1 l/m2 in 6 Std. Regen
Fr, 12.07. 20:00 0.1 l/m2 in 12 Std. Regen
Fr, 12.07. 14:00 0.1 l/m2 in 6 Std. Regen, Niederschlag
Fr, 12.07. 8:00 0.1 l/m2 in 12 Std. -
Fr, 12.07. 2:00 0.1 l/m2 in 6 Std. Regen
Do, 11.07. 20:00 2 l/m2 in 12 Std. Regen
Do, 11.07. 14:00 2 l/m2 in 6 Std. Regen
Ortszeit Niederschlagsmenge Niederschlagsart
Sa, 13.07. 8:30 0.0 l/m2 in 30 Min -
Sa, 13.07. 8:20 keine Meldung -
Sa, 13.07. 8:10 keine Meldung -
Sa, 13.07. 8:00 0.0 l/m2 in 1 Std. Regen
Sa, 13.07. 7:50 keine Meldung -
Sa, 13.07. 7:40 keine Meldung -
Sa, 13.07. 7:30 0.0 l/m2 in 30 Min -
Sa, 13.07. 7:00 3.9 l/m2 in 1 Std. Regen
Sa, 13.07. 6:30 3.9 l/m2 in 30 Min -
Sa, 13.07. 6:00 0.3 l/m2 in 1 Std. Regen
Sa, 13.07. 5:30 0.3 l/m2 in 30 Min -
Ortszeit Stärke Spitze Richtung
km/h Bft. km/h Grad Sektor
Sa, 13.07. 8:00 13 3 28 270° W
Sa, 13.07. 2:00 6 1 19 280° W
Fr, 12.07. 20:00 7 2 32 290° W
Fr, 12.07. 14:00 11 2 43 200° S
Fr, 12.07. 8:00 7 2 22 150° SO
Fr, 12.07. 2:00 4 1 11 170° S
Do, 11.07. 20:00 4 1 25 30° NO
Do, 11.07. 14:00 7 2 22 250° W
Ortszeit Stärke Spitze Richtung
km/h Bft. km/h Grad Sektor
Sa, 13.07. 8:30 11 2 29 260° W
Sa, 13.07. 8:20 11 2 - 260° W
Sa, 13.07. 8:10 14 3 - 260° W
Sa, 13.07. 8:00 13 3 28 270° W
Sa, 13.07. 7:50 13 3 - 270° W
Sa, 13.07. 7:40 9 2 - 280° W
Sa, 13.07. 7:30 13 3 28 280° W
Sa, 13.07. 7:00 7 2 22 290° W
Sa, 13.07. 6:30 6 1 20 290° W
Sa, 13.07. 6:00 6 1 11 270° W
Sa, 13.07. 5:30 4 1 11 260° W
Ortszeit Untergrenze Bedeckung Gattung
total tief tief mittel hoch
Sa, 13.07. 8:00 210 m 8/8 6/8 - - -
Sa, 13.07. 2:00 810 m 8/8 8/8 - - -
Fr, 12.07. 20:00 5100 m 8/8 7/8 - - -
Fr, 12.07. 14:00 720 m 6/8 3/8 - - -
Fr, 12.07. 8:00 6000 m 8/8 8/8 - - -
Fr, 12.07. 2:00 8100 m 8/8 0/8 - - -
Do, 11.07. 20:00 930 m 3/8 1/8 - - -
Do, 11.07. 14:00 810 m 5/8 5/8 - - -
Ortszeit Bedeckungsgrad in Achtel und Wolkenuntergrenze
Sa, 13.07. 8:30 2(240m) 6(510m) 7(3000m)
Sa, 13.07. 8:20 2(240m) 6(510m) 7(3000m)
Sa, 13.07. 8:10 7
Sa, 13.07. 8:00 3(210m) 6(570m) 8(3300m)
Sa, 13.07. 7:50 3(210m) 6(570m) 8(3300m)
Sa, 13.07. 7:40 8
Sa, 13.07. 7:30 3(180m) 7(1350m) 8(3300m)
Sa, 13.07. 7:00 6(150m) 8(1020m) 8(3300m)
Sa, 13.07. 6:30 3(120m) 7(780m) 8(1140m)
Sa, 13.07. 6:00 3(120m) 7(3000m) 7(5700m)
Sa, 13.07. 5:30 1(1800m) 7(2400m)
Ortszeit Stationsdruck (hPa) Tendenz (hPa in 3 Std.)
Sa, 13.07. 8:00 911 + 1,5
Sa, 13.07. 2:00 909 + 0,6
Fr, 12.07. 20:00 909 - 0,8
Fr, 12.07. 14:00 910 - 1,1
Fr, 12.07. 8:00 913 - 0,9
Fr, 12.07. 2:00 915 - 0,9
Do, 11.07. 20:00 916 + 0,1
Do, 11.07. 14:00 916 - 0,5
Ortszeit Stationsdruck (hPa) Tendenz (hPa in 3 Std.)
Sa, 13.07. 8:30 911 + 1,6
Sa, 13.07. 8:20 911 keine Meldung
Sa, 13.07. 8:10 911 keine Meldung
Sa, 13.07. 8:00 911 + 1,5
Sa, 13.07. 7:50 911 keine Meldung
Sa, 13.07. 7:40 911 keine Meldung
Sa, 13.07. 7:30 911 + 0,9
Sa, 13.07. 7:00 910 + 0,5
Sa, 13.07. 6:30 910 + 0,2
Sa, 13.07. 6:00 910 + 0,2
Sa, 13.07. 5:30 909 0,0
Ortszeit Schneehöhe (cm)
Sa, 13.07. 8:00 0
Sa, 13.07. 2:00 0
Fr, 12.07. 20:00 0
Fr, 12.07. 14:00 0
Fr, 12.07. 8:00 0
Fr, 12.07. 2:00 0
Do, 11.07. 20:00 0
Do, 11.07. 14:00 0
Ortszeit Schneehöhe (cm)
Sa, 13.07. 8:30 0
Sa, 13.07. 8:20 0
Sa, 13.07. 8:10 -
Sa, 13.07. 8:00 0
Sa, 13.07. 7:50 0
Sa, 13.07. 7:40 -
Sa, 13.07. 7:30 0
Sa, 13.07. 7:00 0
Sa, 13.07. 6:30 0
Sa, 13.07. 6:00 0
Sa, 13.07. 5:30 0
Link zu dieser Seite / Seite empfehlen

Das Wetter in ...